Airport Name : Campbell River

Other Name : Campbell River

ICAO : CYBL

IATA : YBL

FAA :

Latitude : 49.950832

Longitude : -125.270833

Country : Canada

Local Date and Time : 1/21/2018 10:28:00 AM

 

TAF (Terminal Aerodrome Forecast)

TAF CYBL 211538Z 2116/2204 13012G22KT 2SM -SHRA BR OVC007 TEMPO 2116/2119 P6SM -RA SCT007 OVC030 FM211900 13008KT P6SM SCT050 BKN120 TEMPO 2119/2204 5SM -SHRA BR BKN050 OVC120 RMK NXT FCST BY 211900Z

 

METAR (METeorological Aerodrome Report)

CYBL 211800Z 09003KT 080V190 30SM FEW007 SCT030 06/05 A2949 RMK SF2CU2 SLP991

CYBL 211756Z 14003KT 090V210 30SM SCT009 SCT030 06/05 A2949 RMK SF3CU1 SLP991

CYBL 211700Z 16005KT 130V200 30SM BKN010 BKN030 06/05 A2946 RMK SF7SC1 SC TR SLP979

CYBL 211644Z 18006KT 130V220 30SM BKN010 OVC030 06/05 A2944 RMK SF7SC1 SLP975

CYBL 211600Z 15010G20KT 10SM -RA BKN009 OVC020 06/05 A2940 RMK SF7SC1 SLP961

CYBL 211543Z 14014G23KT 5SM -RA BR BKN009 BKN020 OVC030 06/05 A2940 RMK SF6SC1SC1 PRESRR SLP962

CYBL 211500Z 16013G29KT 4SM RA BR BKN008 BKN015 OVC030 06/05 A2939 RMK SF5SC2SC1 SLP955